Data for 03/11/2007

Time Sea-Level Adjusted Pressure Absolute Pressure Temperature Relative Humidity Dew Point   
(mb) (inHg) (mb) (inHg) (C) (F) (%) (C) (F)
00:05 1022 30.18 852 25.16 3 37.4 57 -4.7 23.5
00:10 1022 30.18 852 25.16 2.6 36.6 59 -4.6 23.7
00:15 1022 30.18 851 25.13 2.5 36.5 60 -4.5 24
00:20 1022 30.18 851 25.13 2.5 36.5 61 -4.3 24.2
00:25 1022 30.18 851 25.13 2.6 36.6 59 -4.6 23.7
00:30 1022 30.18 852 25.16 2.8 37.1 57 -4.8 23.4
00:35 1022 30.18 852 25.16 3.2 37.7 56 -4.9 23.3
00:40 1022 30.18 852 25.16 3.4 38.1 54 -4.9 23.1
00:45 1022 30.18 851 25.13 3.5 38.2 54 -4.9 23.2
00:50 1022 30.18 851 25.13 3.5 38.2 54 -5.1 22.9
00:55 1022 30.18 851 25.13 3.5 38.3 54 -5 23
01:00 1022 30.18 851 25.13 3.5 38.4 53 -5.1 22.9
01:05 1022 30.18 852 25.16 3.7 38.7 52 -5.2 22.7
01:10 1023 30.21 852 25.16 3.8 38.9 52 -5.1 22.7
01:15 1023 30.21 852 25.16 3.6 38.5 54 -4.9 23.1
01:20 1023 30.21 852 25.16 3.5 38.4 52 -5.4 22.3
01:25 1023 30.21 852 25.16 3.8 38.8 51 -5.4 22.4
01:30 1023 30.21 852 25.16 4 39.1 51 -5.3 22.5
01:35 1023 30.21 852 25.16 3.9 39 51 -5.3 22.4
01:40 1023 30.21 852 25.16 3.7 38.7 53 -5.1 22.9
01:45 1023 30.21 852 25.16 3.4 38.2 54 -5 23.1
01:50 1023 30.21 852 25.16 3.2 37.7 55 -5 23
01:55 1023 30.21 852 25.16 3.3 37.9 52 -5.5 22
03:00 1023 30.21 852 25.16 3.8 38.8 50 -5.8 21.6
03:05 1023 30.21 852 25.16 3.9 39 49 -5.7 21.7
03:10 1023 30.21 852 25.16 4.1 39.4 49 -5.7 21.8
03:15 1023 30.21 852 25.16 4.1 39.4 48 -5.8 21.5
03:20 1023 30.21 852 25.16 4.2 39.6 48 -5.8 21.5
03:25 1023 30.21 852 25.16 4.2 39.5 48 -5.8 21.6
03:30 1023 30.21 852 25.16 4 39.1 50 -5.5 22.1
03:35 1023 30.21 852 25.16 3.7 38.7 52 -5.3 22.5
03:40 1023 30.21 852 25.16 3.4 38.1 53 -5.3 22.4
03:45 1022 30.18 852 25.16 3.3 38 53 -5.4 22.3
03:50 1022 30.18 852 25.16 3.3 38 53 -5.3 22.5
03:55 1022 30.18 852 25.16 3.2 37.7 54 -5.3 22.5
04:00 1022 30.18 852 25.16 3.1 37.6 54 -5.3 22.4
04:05 1022 30.18 852 25.16 3.3 37.9 52 -5.7 21.8
04:10 1022 30.18 852 25.16 3.4 38.2 52 -5.6 22
04:15 1022 30.18 852 25.16 3.4 38.1 53 -5.2 22.6
04:20 1022 30.18 852 25.16 3.4 38.1 51 -5.7 21.7
04:25 1022 30.18 852 25.16 3.6 38.5 52 -5.4 22.3
04:30 1022 30.18 852 25.16 3.6 38.5 51 -5.6 21.9
04:35 1022 30.18 852 25.16 3.8 38.9 50 -5.6 21.9
04:40 1022 30.18 852 25.16 3.8 38.9 51 -5.5 22.1
04:45 1022 30.18 852 25.16 3.7 38.6 51 -5.5 22
04:50 1023 30.21 852 25.16 3.7 38.6 51 -5.5 22
04:55 1023 30.21 852 25.16 3.6 38.5 52 -5.4 22.2
05:00 1022 30.18 852 25.16 3.6 38.4 51 -5.5 22
05:05 1023 30.21 852 25.16 3.8 38.8 50 -5.8 21.5
05:10 1023 30.21 852 25.16 3.7 38.7 53 -5.1 22.8
05:15 1023 30.21 852 25.16 3.3 37.9 53 -5.3 22.4
05:20 1023 30.21 852 25.16 3.4 38.1 52 -5.4 22.3
05:25 1023 30.21 852 25.16 3.4 38.2 54 -4.9 23.2
05:30 1022 30.18 852 25.16 3.5 38.4 53 -5.1 22.8
05:35 1023 30.21 852 25.16 3.9 39 51 -5.3 22.5
05:40 1023 30.21 852 25.16 3.9 39.1 53 -4.9 23.2
05:45 1023 30.21 852 25.16 3.8 38.8 54 -4.8 23.4
05:50 1023 30.21 852 25.16 3.9 39.1 52 -5.2 22.7
05:55 1023 30.21 852 25.16 4.3 39.7 50 -5.1 22.8
06:00 1023 30.21 852 25.16 4.5 40 49 -5.4 22.3
06:05 1023 30.21 852 25.16 4.8 40.6 47 -5.6 21.9
06:10 1023 30.21 852 25.16 5 41 50 -4.6 23.6
06:15 1023 30.21 852 25.16 4.1 39.5 55 -4 24.8
06:20 1023 30.21 852 25.16 3.7 38.6 53 -4.9 23.2
06:25 1023 30.21 852 25.16 3.9 39.1 53 -4.9 23.2
06:30 1023 30.21 852 25.16 4.1 39.4 51 -5.2 22.6
06:35 1023 30.21 852 25.16 4.6 40.2 49 -5.2 22.7
06:40 1023 30.21 852 25.16 4.6 40.3 50 -5 23.1
06:45 1023 30.21 852 25.16 4.6 40.3 49 -5.3 22.5
06:50 1023 30.21 852 25.16 4.7 40.5 48 -5.4 22.3
06:55 1023 30.21 852 25.16 4.9 40.9 48 -5.1 22.7
07:00 1023 30.21 852 25.16 4.9 40.9 48 -5.2 22.6
07:05 1023 30.21 852 25.16 4.9 40.8 48 -5.1 22.8
07:10 1023 30.21 852 25.16 5.1 41.2 48 -5 23
07:15 1023 30.21 852 25.16 4.9 40.9 50 -4.6 23.7
07:20 1023 30.21 852 25.16 4.5 40.2 52 -4.4 24.1
07:25 1023 30.21 852 25.16 4.4 40 50 -5 23.1
07:30 1023 30.21 853 25.19 4.5 40.1 50 -4.9 23.1
07:35 1023 30.21 853 25.19 4.8 40.6 51 -4.4 24.1
07:40 1023 30.21 852 25.16 4.9 40.8 50 -4.7 23.6
07:45 1023 30.21 852 25.16 4.7 40.4 53 -4.2 24.5
07:50 1023 30.21 853 25.19 4.5 40.1 52 -4.4 24
07:55 1023 30.21 852 25.16 4.6 40.4 52 -4.3 24.3
08:00 1023 30.21 852 25.16 4.7 40.4 51 -4.7 23.5
08:05 1023 30.21 852 25.16 4.9 40.9 50 -4.5 23.8
08:10 1023 30.21 852 25.16 4.9 40.8 51 -4.6 23.8
08:15 1023 30.21 853 25.19 5 41 50 -4.4 24
08:20 1023 30.21 853 25.19 5.1 41.1 49 -4.7 23.6
08:25 1023 30.21 853 25.19 5.2 41.4 49 -4.5 23.8
08:30 1023 30.21 853 25.19 5.3 41.6 49 -4.5 23.8
08:35 1023 30.21 853 25.19 5.4 41.7 48 -4.8 23.3
08:40 1024 30.24 853 25.19 5.7 42.3 47 -4.8 23.4
08:45 1024 30.24 853 25.19 6 42.7 46 -4.8 23.4
08:50 1024 30.24 853 25.19 6.5 43.7 46 -4.3 24.2
08:55 1024 30.24 853 25.19 6.8 44.2 47 -3.8 25.1
09:00 1024 30.24 853 25.19 6.9 44.5 47 -3.7 25.4
09:05 1024 30.24 853 25.19 7.2 44.9 46 -3.8 25.2
09:10 1024 30.24 853 25.19 7.3 45.2 46 -3.6 25.4
09:15 1024 30.24 853 25.19 7.5 45.4 45 -3.6 25.6
09:20 1024 30.24 853 25.19 7.6 45.7 46 -3.4 25.9
09:25 1024 30.24 853 25.19 7.5 45.4 47 -3.2 26.2
09:30 1024 30.24 853 25.19 7 44.6 47 -3.5 25.7
09:35 1024 30.24 853 25.19 7 44.6 47 -3.5 25.8
09:40 1024 30.24 853 25.19 7.4 45.2 47 -3.3 26.1
09:45 1024 30.24 853 25.19 7.5 45.5 47 -3.2 26.2
09:50 1024 30.24 853 25.19 7.6 45.6 46 -3.3 26.1
09:55 1024 30.24 853 25.19 8 46.3 44 -3.4 25.8
10:00 1024 30.24 853 25.19 8.6 47.5 44 -2.9 26.7
10:05 1024 30.24 853 25.19 8.8 47.8 44 -2.9 26.8
10:10 1024 30.24 853 25.19 9.1 48.3 43 -2.9 26.9
10:15 1024 30.24 853 25.19 9.2 48.6 43 -2.8 27
10:20 1024 30.24 853 25.19 9.3 48.7 43 -2.7 27.2
10:25 1024 30.24 853 25.19 9.4 48.8 42 -2.7 27.1
10:30 1024 30.24 853 25.19 9.3 48.8 43 -2.6 27.3
10:35 1024 30.24 853 25.19 9.5 49.1 43 -2.5 27.4
10:40 1024 30.24 853 25.19 9.6 49.2 43 -2.5 27.6
10:45 1024 30.24 853 25.19 9.8 49.7 42 -2.3 27.8
10:50 1024 30.24 853 25.19 10.2 50.4 41 -2.4 27.7
10:55 1024 30.24 853 25.19 10.5 50.8 41 -2.1 28.2
11:00 1024 30.24 853 25.19 10.7 51.2 41 -2.1 28.3
11:05 1024 30.24 853 25.19 10.9 51.6 40 -2 28.3
11:10 1024 30.24 853 25.19 10.8 51.4 40 -2.2 28
11:15 1024 30.24 853 25.19 11.3 52.3 40 -1.8 28.8
11:20 1024 30.24 853 25.19 11.8 53.3 38 -1.9 28.6
11:25 1024 30.24 853 25.19 12 53.5 38 -1.7 28.9
11:30 1024 30.24 853 25.19 12 53.6 38 -1.7 28.9
11:35 1024 30.24 853 25.19 11.7 53.1 39 -1.9 28.6
11:40 1024 30.24 853 25.19 11.1 51.9 39 -2.2 28
11:45 1024 30.24 853 25.19 11 51.7 40 -2 28.3
11:50 1024 30.24 853 25.19 11.7 53 40 -1.6 29.2
11:55 1024 30.24 853 25.19 12.1 53.7 38 -1.7 29
12:00 1024 30.24 853 25.19 12.3 54.2 38 -1.6 29.2
12:05 1024 30.24 853 25.19 12.5 54.6 38 -1.3 29.7
12:10 1024 30.24 853 25.19 12.4 54.4 39 -1.2 29.9
12:15 1024 30.24 853 25.19 12.3 54.1 39 -1.1 30
12:20 1024 30.24 853 25.19 12.5 54.5 40 -0.6 30.9
12:25 1024 30.24 853 25.19 12.8 55.1 39 -0.6 30.9
12:30 1024 30.24 853 25.19 13.1 55.6 38 -0.8 30.6
12:35 1024 30.24 853 25.19 13.2 55.8 38 -0.7 30.8
12:40 1024 30.24 853 25.19 13.3 56 39 -0.4 31.2
12:45 1024 30.24 853 25.19 13.4 56.2 41 0.6 33.1
12:50 1024 30.24 853 25.19 13.3 56 43 1.2 34.2
12:55 1024 30.24 853 25.19 13.2 55.8 44 1.2 34.2
13:00 1024 30.24 853 25.19 13.3 55.9 44 1.3 34.4
13:05 1024 30.24 853 25.19 13.1 55.6 44 1.3 34.4
13:10 1023 30.21 853 25.19 13 55.5 44 1 33.8
13:15 1023 30.21 853 25.19 13 55.4 44 1.1 33.9
13:20 1023 30.21 853 25.19 13 55.4 44 1.2 34.1
13:25 1023 30.21 852 25.16 13.2 55.7 43 1.1 34
13:30 1023 30.21 852 25.16 13.3 56 44 1.3 34.3
13:35 1023 30.21 852 25.16 13.2 55.8 44 1.3 34.4
13:40 1023 30.21 852 25.16 13.1 55.6 44 1.3 34.4
13:45 1023 30.21 852 25.16 13 55.3 44 1.2 34.2
13:50 1023 30.21 852 25.16 13 55.4 44 1.2 34.1
13:55 1023 30.21 852 25.16 13 55.4 44 1.2 34.1
14:00 1023 30.21 852 25.16 12.9 55.1 45 1.2 34.1
14:05 1023 30.21 852 25.16 12.9 55.1 45 1.1 34
14:10 1023 30.21 852 25.16 12.9 55.2 44 1 33.8
14:15 1023 30.21 852 25.16 12.9 55.3 44 1 33.8
14:20 1023 30.21 852 25.16 13 55.4 44 1.1 33.9
14:25 1023 30.21 852 25.16 13.1 55.5 44 1.2 34.1
14:30 1023 30.21 852 25.16 13 55.3 45 1.3 34.4
14:35 1023 30.21 852 25.16 12.9 55.2 45 1.2 34.1
14:40 1023 30.21 852 25.16 12.8 55.1 46 1.4 34.5
14:45 1023 30.21 852 25.16 12.9 55.2 45 1.4 34.5
14:50 1023 30.21 852 25.16 13 55.4 45 1.5 34.7
14:55 1023 30.21 852 25.16 13.2 55.8 44 1.4 34.5
15:00 1023 30.21 852 25.16 13.2 55.7 44 1.2 34.2
15:05 1023 30.21 852 25.16 13.2 55.8 44 1.2 34.2
15:10 1023 30.21 852 25.16 13.3 55.9 44 1.2 34.2
15:15 1023 30.21 852 25.16 13.3 56 43 1 33.8
15:20 1023 30.21 852 25.16 13.4 56 44 1.4 34.4
15:25 1023 30.21 852 25.16 13.4 56.1 44 1.4 34.6
15:30 1023 30.21 852 25.16 13.4 56 43 1.1 34
15:35 1023 30.21 852 25.16 13.4 56.1 42 0.8 33.5
15:40 1023 30.21 852 25.16 13.4 56.2 42 1 33.8
15:45 1023 30.21 852 25.16 13.3 56 44 1.4 34.5
15:50 1023 30.21 852 25.16 13.1 55.5 44 1.3 34.3
15:55 1023 30.21 852 25.16 13 55.4 45 1.3 34.4
16:00 1023 30.21 852 25.16 12.9 55.2 45 1.4 34.5
16:05 1023 30.21 852 25.16 12.8 55.1 44 1.1 33.9
16:10 1023 30.21 852 25.16 12.7 54.9 44 1 33.7
16:15 1023 30.21 852 25.16 12.8 55.1 45 1.2 34.2
16:20 1023 30.21 852 25.16 12.9 55.2 45 1.2 34.1
16:25 1023 30.21 852 25.16 13 55.4 44 1.1 33.9
16:30 1023 30.21 852 25.16 13 55.4 45 1.5 34.7
16:35 1023 30.21 852 25.16 12.8 55.1 45 1.3 34.3
16:40 1023 30.21 852 25.16 12.7 54.8 45 1.2 34.1
16:45 1023 30.21 852 25.16 12.8 55.1 45 1.1 34
16:50 1023 30.21 852 25.16 13.1 55.5 44 1.1 33.9
16:55 1023 30.21 852 25.16 13.3 55.9 43 0.9 33.7
17:00 1023 30.21 852 25.16 13.5 56.3 42 0.8 33.4
17:05 1023 30.21 852 25.16 13.6 56.6 42 1 33.7
17:10 1023 30.21 852 25.16 13.6 56.5 42 1.1 34
17:15 1023 30.21 852 25.16 13.4 56.1 42 0.8 33.5
17:20 1023 30.21 852 25.16 13.4 56 42 0.9 33.7
17:25 1023 30.21 852 25.16 13.4 56.1 43 1.1 33.9
17:30 1023 30.21 852 25.16 13.4 56.1 43 1.3 34.3
17:35 1023 30.21 852 25.16 13.4 56.1 43 1.3 34.3
17:40 1023 30.21 852 25.16 13.3 56 44 1.5 34.7
17:45 1023 30.21 852 25.16 12.7 54.9 46 1.5 34.7
17:50 1023 30.21 852 25.16 12.6 54.6 46 1.2 34.2
17:55 1023 30.21 852 25.16 12.7 54.8 45 1.1 34
18:00 1023 30.21 852 25.16 12.8 55.1 43 0.7 33.3
18:05 1023 30.21 852 25.16 13.3 55.9 41 0.3 32.6
18:10 1023 30.21 852 25.16 13.9 56.9 40 0.6 33
18:15 1023 30.21 852 25.16 13.9 56.9 41 1 33.7
18:20 1023 30.21 852 25.16 13.5 56.4 42 0.8 33.5
18:25 1023 30.21 852 25.16 13.4 56.1 43 1.1 34.1
18:30 1023 30.21 852 25.16 13 55.5 44 1.2 34.2
18:35 1023 30.21 852 25.16 12.8 55 45 1.2 34.2
18:40 1023 30.21 852 25.16 12.6 54.7 45 1.2 34.2
18:45 1023 30.21 852 25.16 12.5 54.6 46 1.2 34.2
18:50 1023 30.21 852 25.16 12.3 54.2 46 1 33.9
18:55 1023 30.21 852 25.16 12.3 54.2 46 1.2 34.1
19:00 1023 30.21 852 25.16 12 53.6 46 1 33.7
19:05 1023 30.21 852 25.16 12 53.6 47 1 33.7
19:10 1023 30.21 852 25.16 11.9 53.3 47 0.8 33.5
19:15 1023 30.21 852 25.16 11.8 53.2 47 0.9 33.6
19:20 1022 30.18 852 25.16 11.6 52.9 48 0.9 33.7
19:25 1022 30.18 852 25.16 11.5 52.6 48 0.8 33.4
19:30 1023 30.21 852 25.16 11.6 52.8 47 0.8 33.4
19:35 1023 30.21 852 25.16 11.6 52.8 46 0.5 32.9
19:40 1023 30.21 852 25.16 11.8 53.2 46 0.6 33
19:45 1023 30.21 852 25.16 11.7 53 47 0.9 33.6
19:50 1022 30.18 852 25.16 11.4 52.5 47 0.6 33.1
19:55 1022 30.18 852 25.16 11.4 52.4 47 0.7 33.2
20:00 1022 30.18 852 25.16 11.4 52.4 47 0.5 32.9
20:05 1022 30.18 852 25.16 11.6 52.8 47 0.6 33
20:10 1022 30.18 852 25.16 11.4 52.4 48 0.7 33.2
20:15 1022 30.18 851 25.13 11.2 52.2 47 0.2 32.4
20:20 1022 30.18 851 25.13 11.9 53.4 45 0.3 32.5
20:25 1022 30.18 851 25.13 11.9 53.4 45 0.4 32.8
20:30 1022 30.18 851 25.13 11.7 53.1 45 0.2 32.4
20:35 1022 30.18 851 25.13 12 53.6 44 0.1 32.2
20:40 1022 30.18 851 25.13 12 53.6 44 0.1 32.2
20:45 1022 30.18 851 25.13 12.3 54.2 42 -0.2 31.6
20:50 1022 30.18 851 25.13 12.6 54.8 41 -0.1 31.8
20:55 1022 30.18 851 25.13 12.5 54.5 41 -0.2 31.6
21:00 1022 30.18 851 25.13 12.8 55 41 -0.2 31.7
21:05 1022 30.18 852 25.16 12.5 54.4 41 -0.3 31.5
21:10 1023 30.21 852 25.16 12.2 53.9 43 0.2 32.3
21:15 1023 30.21 852 25.16 11.7 53.1 44 -0 31.9
21:20 1023 30.21 852 25.16 11.8 53.3 43 -0.2 31.7
21:25 1023 30.21 852 25.16 11.7 53.1 45 0.2 32.3
21:30 1023 30.21 852 25.16 11.1 52 46 0 32
21:35 1023 30.21 852 25.16 11 51.9 45 -0.3 31.5
21:40 1023 30.21 852 25.16 11.7 53 43 -0.4 31.2
21:45 1023 30.21 852 25.16 11.7 53.1 44 -0.1 31.9
21:50 1023 30.21 852 25.16 11.5 52.6 45 0 32
21:55 1023 30.21 852 25.16 11.2 52.1 45 -0.2 31.7
22:00 1023 30.21 852 25.16 11.7 53.1 42 -0.6 31
22:05 1023 30.21 852 25.16 12.1 53.7 42 -0.3 31.5
22:10 1023 30.21 852 25.16 12 53.6 43 -0.2 31.7
22:15 1023 30.21 852 25.16 12 53.7 42 -0.4 31.3
22:20 1023 30.21 852 25.16 12.2 53.9 41 -0.5 31.1
22:25 1023 30.21 852 25.16 12.5 54.4 39 -0.9 30.3
22:30 1023 30.21 852 25.16 12.9 55.2 38 -0.8 30.5
22:35 1023 30.21 852 25.16 13 55.5 38 -0.7 30.7
22:40 1023 30.21 852 25.16 12.8 55.1 39 -0.6 30.9
22:45 1023 30.21 852 25.16 12.7 54.9 40 -0.6 30.9
22:50 1023 30.21 852 25.16 12.8 55 38 -1.2 29.8
22:55 1023 30.21 852 25.16 13.1 55.7 37 -1 30.2
23:00 1022 30.18 852 25.16 13.2 55.7 36 -1.6 29.2
23:05 1022 30.18 852 25.16 13.7 56.7 35 -1.4 29.5
23:10 1022 30.18 852 25.16 13.7 56.7 35 -1.4 29.4
23:15 1022 30.18 852 25.16 13.5 56.2 36 -1.4 29.5
23:20 1022 30.18 852 25.16 13.2 55.8 36 -1.6 29.1
23:25 1022 30.18 852 25.16 13.2 55.8 35 -1.8 28.7
23:30 1022 30.18 851 25.13 13.1 55.7 36 -1.3 29.6
23:35 1022 30.18 851 25.13 12.8 55 36 -1.7 28.9
23:40 1022 30.18 852 25.16 12.7 54.8 38 -1.1 30
23:45 1022 30.18 852 25.16 12.6 54.7 37 -1.6 29.1
23:50 1022 30.18 852 25.16 12.6 54.8 37 -1.6 29.1
23:55 1022 30.18 852 25.16 12.6 54.6 37 -1.6 29.1
24:00 1022 30.18 851 25.13 12.6 54.6 38 -1.3 29.6